Hauptseite
METAR-TAF:

METAR-TAF

Flughäfen :

Wallis, Frankreich

Flughafen Wallis Hihifo

Breite: 13-14S, Länge: 176-10W, Höhe: 23 m

METAR: fehlend

Zeit: 21:53 (09:53 UTC)

Prognose

Neuester Wetterbericht von vor 1 Stunde und 32 Minuten, um 08:21 UTC
Gültige Prognose vom 21 um 08 UTC bis 22 um 06 UTC
Wind 2 kt aus unterschiedlichen Richtungen
Sichtweite 10 km oder mehr
Aufgelockert bewölkt in der Höhe von 1500 ft
Durchbrochene Bewölkung in der Höhe von 3500 ft
Zeitweise
vom 21 um 08 UTC bis 21 um 22 UTC
Sichtweite: 3000 m
Durchbrochene Bewölkung in der Höhe von 1100 ft
Aufgelockert bewölkt in der Höhe von 2000 ft, Kumulonimbus.
Regenschauer

TAF: NLWW 210821Z 2108/2206 VRB02KT 9999 SCT015 BKN035 TEMPO 2108/2122 3000 SHRA BKN011 SCT020CB

Wetterbeobachtungen und Prognosen von mehr als 4000 Flughäfen (METAR und TAF Bericht).

Die verfügbaren Stationen werden durch gelbe und rote Markierungen auf der Karte dargestellt.

Führen Sie die Maus auf sie, um den Namen der Station zu sehen.

Darauf klicken, um die Beobachtung von Wetterbeobachtungen und Prognosen zu sehen.

Um die Karte zu ändern : klicken Sie auf den grünen Tasten mit einem schwarzen Kreuz Zum Vergrößern, auf den grünen Button mit einem Gedankenstrich zu verkleinern, oder auf die grünen Pfeile für benachbarte Karten.


METAR-TAF: